createdAt,value
2023-01-06T00:00:03.106Z,7.5
2023-01-06T00:01:10.179Z,7.5
2023-01-06T00:02:16.780Z,7.5
2023-01-06T00:03:23.877Z,7.5
2023-01-06T00:04:31.039Z,7.5
2023-01-06T00:05:38.116Z,7.5
2023-01-06T00:06:45.197Z,7.6
2023-01-06T00:07:51.817Z,7.6
2023-01-06T00:08:58.961Z,7.7
2023-01-06T00:10:06.022Z,7.6
2023-01-06T00:11:13.092Z,7.6
2023-01-06T00:12:19.712Z,7.6
2023-01-06T00:13:26.771Z,7.6
2023-01-06T00:14:34.020Z,7.7
2023-01-06T00:15:41.051Z,7.6
2023-01-06T00:16:48.103Z,7.6
2023-01-06T00:17:54.635Z,7.6
2023-01-06T00:19:01.782Z,7.6
2023-01-06T00:20:08.936Z,7.6
2023-01-06T00:21:16.029Z,7.6
2023-01-06T00:22:23.110Z,7.5
2023-01-06T00:23:30.187Z,7.5
2023-01-06T00:24:36.836Z,7.5
2023-01-06T00:25:43.964Z,7.5
2023-01-06T00:26:50.984Z,7.5
2023-01-06T00:27:58.153Z,7.5
2023-01-06T00:29:04.697Z,7.5
2023-01-06T00:30:12.124Z,7.6
2023-01-06T00:31:19.025Z,7.6
2023-01-06T00:32:26.055Z,7.6
2023-01-06T00:33:33.118Z,7.6
2023-01-06T00:34:39.846Z,7.6
2023-01-06T00:35:46.913Z,7.6
2023-01-06T00:36:53.904Z,7.5
2023-01-06T00:38:00.968Z,7.6
2023-01-06T00:39:08.170Z,7.6
2023-01-06T00:40:17.821Z,7.7
2023-01-06T00:41:21.858Z,7.7
2023-01-06T00:44:43.184Z,7.6
2023-01-06T00:45:50.423Z,7.6
2023-01-06T00:46:56.870Z,7.7
2023-01-06T00:48:03.913Z,7.7
2023-01-06T00:49:11.048Z,7.7
2023-01-06T00:50:18.095Z,7.7
2023-01-06T00:51:24.725Z,7.7
2023-01-06T00:52:31.938Z,7.7
2023-01-06T00:53:38.942Z,7.8
2023-01-06T00:54:45.474Z,7.9
2023-01-06T00:55:53.172Z,7.9
2023-01-06T00:56:59.721Z,7.9
2023-01-06T00:58:06.862Z,7.9
2023-01-06T00:59:13.948Z,7.9
2023-01-06T01:00:21.072Z,7.9
2023-01-06T01:01:28.314Z,7.9
2023-01-06T01:02:36.089Z,7.9
2023-01-06T01:03:41.849Z,8
2023-01-06T01:04:48.934Z,7.9
2023-01-06T01:05:56.103Z,7.9
2023-01-06T01:07:03.163Z,7.9
2023-01-06T01:08:09.754Z,7.9
2023-01-06T01:09:16.860Z,7.9
2023-01-06T01:10:23.973Z,7.9
2023-01-06T01:11:31.040Z,7.9
2023-01-06T01:12:38.229Z,7.9
2023-01-06T01:13:44.718Z,7.9
2023-01-06T01:14:51.903Z,7.9
2023-01-06T01:15:59.024Z,7.9
2023-01-06T01:17:06.170Z,8
2023-01-06T01:18:12.644Z,8
2023-01-06T01:19:19.800Z,8
2023-01-06T01:20:26.903Z,8
2023-01-06T01:21:33.966Z,8
2023-01-06T01:22:41.275Z,8
2023-01-06T01:23:48.241Z,7.9
2023-01-06T01:24:54.762Z,7.9
2023-01-06T01:26:01.833Z,7.9
2023-01-06T01:27:09.042Z,7.9
2023-01-06T01:28:16.130Z,7.9
2023-01-06T01:29:23.143Z,7.9
2023-01-06T01:30:29.822Z,7.8
2023-01-06T01:31:36.933Z,7.8
2023-01-06T01:32:44.023Z,7.8
2023-01-06T01:33:51.285Z,7.9
2023-01-06T01:34:58.220Z,7.9
2023-01-06T01:36:04.744Z,7.9
2023-01-06T01:37:11.850Z,7.9
2023-01-06T01:38:18.986Z,7.9
2023-01-06T01:39:26.131Z,7.9
2023-01-06T01:40:32.660Z,8
2023-01-06T01:41:39.823Z,7.9
2023-01-06T01:42:46.929Z,7.9
2023-01-06T01:43:54.013Z,7.9
2023-01-06T01:45:01.097Z,7.9
2023-01-06T01:46:07.730Z,7.9
2023-01-06T01:48:22.353Z,7.9
2023-01-06T01:49:29.054Z,7.9
2023-01-06T01:50:36.116Z,7.8
2023-01-06T01:51:42.655Z,7.8
2023-01-06T01:52:49.846Z,7.8
2023-01-06T01:53:56.944Z,7.9
2023-01-06T01:55:03.976Z,7.8
2023-01-06T01:56:11.173Z,7.8
2023-01-06T01:57:18.216Z,7.8
2023-01-06T01:58:24.812Z,7.7
2023-01-06T01:59:32.092Z,7.7
2023-01-06T02:00:39.064Z,7.7
2023-01-06T02:01:46.308Z,7.7
2023-01-06T02:02:52.812Z,7.7
2023-01-06T02:03:59.853Z,7.7
2023-01-06T02:05:06.919Z,7.7
2023-01-06T02:06:14.567Z,7.7
2023-01-06T02:07:21.134Z,7.7
2023-01-06T02:08:27.763Z,7.7
2023-01-06T02:09:34.832Z,7.7
2023-01-06T02:11:49.083Z,7.7
2023-01-06T02:12:56.207Z,7.7
2023-01-06T02:14:02.688Z,7.6
2023-01-06T02:15:09.854Z,7.6
2023-01-06T02:16:17.002Z,7.6
2023-01-06T02:17:23.560Z,7.6
2023-01-06T02:17:24.000Z,7.6
2023-01-06T02:18:31.175Z,7.5
2023-01-06T02:19:37.750Z,7.5
2023-01-06T02:20:44.801Z,7.5
2023-01-06T02:21:51.968Z,7.5
2023-01-06T02:22:59.095Z,7.5
2023-01-06T02:24:06.159Z,7.4
2023-01-06T02:25:12.744Z,7.4
2023-01-06T02:26:19.863Z,7.4
2023-01-06T02:27:26.955Z,7.4
2023-01-06T02:28:34.029Z,7.4
2023-01-06T02:29:41.155Z,7.4
2023-01-06T02:30:47.800Z,7.3
2023-01-06T02:31:54.865Z,7.3
2023-01-06T02:33:01.990Z,7.3
2023-01-06T02:34:09.099Z,7.3
2023-01-06T02:35:16.241Z,7.3
2023-01-06T02:36:22.865Z,7.3
2023-01-06T02:37:29.918Z,7.3
2023-01-06T02:38:36.960Z,7.3
2023-01-06T02:39:44.051Z,7.3
2023-01-06T02:40:50.685Z,7.2
2023-01-06T02:41:57.853Z,7.2
2023-01-06T02:43:04.886Z,7.2
2023-01-06T02:44:12.190Z,7.2
2023-01-06T02:45:19.075Z,7.2
2023-01-06T02:46:26.235Z,7.2
2023-01-06T02:47:32.915Z,7.1
2023-01-06T02:48:39.879Z,7.1
2023-01-06T02:49:47.010Z,7.1
2023-01-06T02:52:01.182Z,7.1
2023-01-06T02:53:07.857Z,7.1
2023-01-06T02:54:14.902Z,7.1
2023-01-06T02:55:21.974Z,7.1
2023-01-06T02:56:29.122Z,7.1
2023-01-06T02:57:36.251Z,7.1
2023-01-06T02:58:42.852Z,7
2023-01-06T02:59:49.885Z,7
2023-01-06T03:00:57.026Z,7
2023-01-06T03:02:04.242Z,7
2023-01-06T03:03:10.687Z,6.9
2023-01-06T03:04:17.942Z,7
2023-01-06T03:05:24.902Z,7
2023-01-06T03:06:32.041Z,7
2023-01-06T03:07:39.109Z,7
2023-01-06T03:08:45.705Z,7
2023-01-06T03:09:53.955Z,7.1
2023-01-06T03:10:59.900Z,7.1
2023-01-06T03:12:06.995Z,7.1
2023-01-06T03:13:14.075Z,7.1
2023-01-06T03:14:20.735Z,7.1
2023-01-06T03:15:27.904Z,7.2
2023-01-06T03:16:34.903Z,7.2
2023-01-06T03:17:42.015Z,7.2
2023-01-06T03:18:49.104Z,7.2
2023-01-06T03:19:55.688Z,7.2
2023-01-06T03:21:02.908Z,7.2
2023-01-06T03:22:09.935Z,7.2
2023-01-06T03:23:17.045Z,7.3
2023-01-06T03:24:24.160Z,7.3
2023-01-06T03:25:30.748Z,7.4
2023-01-06T03:26:37.924Z,7.4
2023-01-06T03:27:44.962Z,7.4
2023-01-06T03:28:52.021Z,7.4
2023-01-06T03:29:59.126Z,7.5
2023-01-06T03:31:06.309Z,7.5
2023-01-06T03:32:12.864Z,7.6
2023-01-06T03:33:19.931Z,7.6
2023-01-06T03:34:27.025Z,7.6
2023-01-06T03:35:34.214Z,7.6
2023-01-06T03:36:40.732Z,7.6
2023-01-06T03:37:47.871Z,7.6
2023-01-06T03:40:02.055Z,7.6
2023-01-06T03:41:09.200Z,7.6
2023-01-06T03:42:31.223Z,7.6
2023-01-06T03:43:22.837Z,7.6
2023-01-06T03:44:29.931Z,7.7
2023-01-06T03:45:37.045Z,7.7
2023-01-06T03:46:44.340Z,7.7
2023-01-06T03:47:50.840Z,7.7
2023-01-06T03:48:57.894Z,7.7
2023-01-06T03:50:04.917Z,7.7
2023-01-06T03:51:12.064Z,7.8
2023-01-06T03:52:19.210Z,7.8
2023-01-06T03:53:25.813Z,7.8
2023-01-06T03:55:39.981Z,7.8
2023-01-06T03:56:47.105Z,7.8
2023-01-06T03:57:54.259Z,7.8
2023-01-06T03:59:00.763Z,7.8
2023-01-06T04:00:07.870Z,7.8
2023-01-06T04:01:15.109Z,7.8
2023-01-06T04:02:22.160Z,7.8
2023-01-06T04:03:29.289Z,7.8
2023-01-06T04:04:35.822Z,7.8
2023-01-06T04:05:42.904Z,7.8
2023-01-06T04:06:50.032Z,7.8
2023-01-06T04:07:57.146Z,7.8
2023-01-06T04:09:04.210Z,7.8
2023-01-06T04:10:10.773Z,7.9
2023-01-06T04:11:17.975Z,7.9
2023-01-06T04:12:25.012Z,7.9
2023-01-06T04:13:32.632Z,7.9
2023-01-06T04:14:39.192Z,7.9
2023-01-06T04:15:46.833Z,7.9
2023-01-06T04:16:52.930Z,7.9
2023-01-06T04:18:00.152Z,7.9
2023-01-06T04:19:07.124Z,7.9
2023-01-06T04:20:13.641Z,7.9
2023-01-06T04:21:20.833Z,7.9
2023-01-06T04:22:27.927Z,8
2023-01-06T04:23:34.969Z,8
2023-01-06T04:24:42.109Z,8
2023-01-06T04:25:48.692Z,8
2023-01-06T04:26:55.825Z,8
2023-01-06T04:28:02.978Z,8
2023-01-06T04:29:10.046Z,8
2023-01-06T04:30:17.995Z,8
2023-01-06T04:31:23.821Z,7.9
2023-01-06T04:32:30.823Z,7.9
2023-01-06T04:33:37.917Z,7.9
2023-01-06T04:34:45.030Z,7.9
2023-01-06T04:35:52.123Z,7.9
2023-01-06T04:36:58.728Z,7.9
2023-01-06T04:38:05.903Z,8
2023-01-06T04:39:12.898Z,7.9
2023-01-06T04:40:20.021Z,8
2023-01-06T04:41:27.152Z,8
2023-01-06T04:42:33.742Z,8
2023-01-06T04:43:40.855Z,8
2023-01-06T04:44:47.987Z,8
2023-01-06T04:45:55.103Z,8
2023-01-06T04:47:02.109Z,8
2023-01-06T04:48:08.722Z,8
2023-01-06T04:49:15.824Z,8
2023-01-06T04:50:22.980Z,7.9
2023-01-06T04:51:30.061Z,7.9
2023-01-06T04:52:37.220Z,7.9
2023-01-06T04:53:43.749Z,7.9
2023-01-06T04:54:50.829Z,8
2023-01-06T04:55:57.983Z,8
2023-01-06T04:57:05.046Z,8
2023-01-06T04:59:18.878Z,8
2023-01-06T05:00:25.835Z,7.9
2023-01-06T05:01:33.072Z,8
2023-01-06T05:02:39.523Z,7.9
2023-01-06T05:02:40.092Z,7.9
2023-01-06T05:03:47.283Z,7.9
2023-01-06T05:04:53.757Z,7.9
2023-01-06T05:06:00.871Z,7.9
2023-01-06T05:08:15.063Z,7.9
2023-01-06T05:09:22.154Z,7.9
2023-01-06T05:10:28.976Z,7.9
2023-01-06T05:11:35.858Z,7.9
2023-01-06T05:12:43.013Z,7.9
2023-01-06T05:13:50.092Z,7.9
2023-01-06T05:14:57.203Z,7.9
2023-01-06T05:16:03.827Z,7.9
2023-01-06T05:17:11.433Z,7.9
2023-01-06T05:18:18.013Z,7.9
2023-01-06T05:19:25.078Z,7.9
2023-01-06T05:20:32.200Z,7.9
2023-01-06T05:21:38.829Z,7.9
2023-01-06T05:22:45.984Z,7.9
2023-01-06T05:23:52.976Z,7.9
2023-01-06T05:25:00.160Z,7.9
2023-01-06T05:26:07.186Z,7.9
2023-01-06T05:27:13.787Z,7.9
2023-01-06T05:28:20.897Z,7.9
2023-01-06T05:29:28.017Z,7.9
2023-01-06T05:30:35.092Z,7.9
2023-01-06T05:31:42.283Z,7.9
2023-01-06T05:32:48.877Z,7.9
2023-01-06T05:33:55.890Z,7.9
2023-01-06T05:35:02.952Z,7.8
2023-01-06T05:36:10.098Z,7.8
2023-01-06T05:37:16.727Z,7.8
2023-01-06T05:38:23.809Z,7.8
2023-01-06T05:39:30.951Z,7.8
2023-01-06T05:40:37.993Z,7.8
2023-01-06T05:41:45.105Z,7.8
2023-01-06T05:42:51.801Z,7.8
2023-01-06T05:43:58.823Z,7.8
2023-01-06T05:45:05.964Z,7.8
2023-01-06T05:46:13.130Z,7.8
2023-01-06T05:47:20.113Z,7.8
2023-01-06T05:48:26.687Z,7.7
2023-01-06T05:49:33.823Z,7.7
2023-01-06T05:50:40.954Z,7.7
2023-01-06T05:51:48.006Z,7.7
2023-01-06T05:52:55.209Z,7.7
2023-01-06T05:54:01.725Z,7.7
2023-01-06T05:55:08.870Z,7.6
2023-01-06T05:56:15.927Z,7.6
2023-01-06T05:57:22.984Z,7.7
2023-01-06T05:58:30.165Z,7.6
2023-01-06T05:59:36.740Z,7.6
2023-01-06T06:00:43.861Z,7.6
2023-01-06T06:02:58.127Z,7.6
2023-01-06T06:04:05.213Z,7.6
2023-01-06T06:05:11.754Z,7.6
2023-01-06T06:06:18.815Z,7.6
2023-01-06T06:07:25.926Z,7.6
2023-01-06T06:08:33.029Z,7.6
2023-01-06T06:09:40.148Z,7.5
2023-01-06T06:10:46.744Z,7.5
2023-01-06T06:11:53.859Z,7.5
2023-01-06T06:13:00.925Z,7.5
2023-01-06T06:14:08.127Z,7.5
2023-01-06T06:15:15.111Z,7.5
2023-01-06T06:16:21.877Z,7.5
2023-01-06T06:17:28.957Z,7.4
2023-01-06T06:18:35.976Z,7.4
2023-01-06T06:19:43.019Z,7.4
2023-01-06T06:20:50.698Z,7.5
2023-01-06T06:21:56.779Z,7.5
2023-01-06T06:23:03.872Z,7.4
2023-01-06T06:24:11.025Z,7.4
2023-01-06T06:25:18.106Z,7.4
2023-01-06T06:26:25.139Z,7.4
2023-01-06T06:27:31.813Z,7.4
2023-01-06T06:28:38.862Z,7.3
2023-01-06T06:29:45.953Z,7.3
2023-01-06T06:30:55.348Z,7.3
2023-01-06T06:32:00.311Z,7.3
2023-01-06T06:33:06.785Z,7.3
2023-01-06T06:34:13.883Z,7.3
2023-01-06T06:36:28.137Z,7.3
2023-01-06T06:37:35.267Z,7.3
2023-01-06T06:38:41.779Z,7.3
2023-01-06T06:39:48.859Z,7.3
2023-01-06T06:40:56.011Z,7.3
2023-01-06T06:42:03.108Z,7.3
2023-01-06T06:43:10.226Z,7.3
2023-01-06T06:44:16.817Z,7.3
2023-01-06T06:45:23.906Z,7.3
2023-01-06T06:46:30.991Z,7.3
2023-01-06T06:47:38.184Z,7.3
2023-01-06T06:48:44.684Z,7.3
2023-01-06T06:49:51.817Z,7.3
2023-01-06T06:50:58.922Z,7.3
2023-01-06T06:52:05.978Z,7.3
2023-01-06T06:53:13.135Z,7.3
2023-01-06T06:54:19.679Z,7.3
2023-01-06T06:55:26.839Z,7.3
2023-01-06T06:56:33.879Z,7.3
2023-01-06T06:57:41.044Z,7.3
2023-01-06T06:58:48.154Z,7.3
2023-01-06T06:59:54.703Z,7.3
2023-01-06T07:01:01.878Z,7.3
2023-01-06T07:02:09.038Z,7.3
2023-01-06T07:03:16.024Z,7.4
2023-01-06T07:04:23.155Z,7.4
2023-01-06T07:05:29.737Z,7.4
2023-01-06T07:06:36.797Z,7.3
2023-01-06T07:07:43.869Z,7.3
2023-01-06T07:08:51.166Z,7.3
2023-01-06T07:09:58.181Z,7.2
2023-01-06T07:11:04.664Z,7.2
2023-01-06T07:12:12.815Z,7.2
2023-01-06T07:13:18.963Z,7.2
2023-01-06T07:14:26.064Z,7.2
2023-01-06T07:15:33.162Z,7.2
2023-01-06T07:16:39.712Z,7.2
2023-01-06T07:17:46.864Z,7.2
2023-01-06T07:18:53.903Z,7.2
2023-01-06T07:20:01.110Z,7.2
2023-01-06T07:21:08.173Z,7.2
2023-01-06T07:22:14.680Z,7.2
2023-01-06T07:23:21.900Z,7.2
2023-01-06T07:24:29.496Z,7.2
2023-01-06T07:25:36.034Z,7.2
2023-01-06T07:26:43.133Z,7.2
2023-01-06T07:27:49.783Z,7.2
2023-01-06T07:28:56.839Z,7.2
2023-01-06T07:30:03.896Z,7.2
2023-01-06T07:31:11.152Z,7.2
2023-01-06T07:32:18.152Z,7.2
2023-01-06T07:33:24.791Z,7.2
2023-01-06T07:34:31.803Z,7.2
2023-01-06T07:35:38.974Z,7.2
2023-01-06T07:36:46.085Z,7.2
2023-01-06T07:37:53.222Z,7.2
2023-01-06T07:38:59.743Z,7.2
2023-01-06T07:40:06.837Z,7.2
2023-01-06T07:41:14.106Z,7.2
2023-01-06T07:42:21.053Z,7.2
2023-01-06T07:43:28.277Z,7.2
2023-01-06T07:44:34.712Z,7.1
2023-01-06T07:45:42.003Z,7.1
2023-01-06T07:46:48.983Z,7.1
2023-01-06T07:47:56.110Z,7.2
2023-01-06T07:49:02.625Z,7.2
2023-01-06T07:50:09.786Z,7.2
2023-01-06T07:51:16.948Z,7.2
2023-01-06T07:52:24.003Z,7.2
2023-01-06T07:53:31.063Z,7.2
2023-01-06T07:54:38.212Z,7.2
2023-01-06T07:55:44.752Z,7.2
2023-01-06T07:56:52.018Z,7.2
2023-01-06T07:57:59.038Z,7.2
2023-01-06T07:59:06.083Z,7.2
2023-01-06T08:00:13.202Z,7.2
2023-01-06T08:01:19.944Z,7.2
2023-01-06T08:02:27.083Z,7.2
2023-01-06T08:03:33.953Z,7.2
2023-01-06T08:04:41.138Z,7.2
2023-01-06T08:05:47.742Z,7.2
2023-01-06T08:06:54.740Z,7.2
2023-01-06T08:08:02.114Z,7.2
2023-01-06T08:10:17.982Z,7.2
2023-01-06T08:11:22.705Z,7.2
2023-01-06T08:12:29.783Z,7.2
2023-01-06T08:13:36.933Z,7.2
2023-01-06T08:14:44.011Z,7.2
2023-01-06T08:15:51.119Z,7.2
2023-01-06T08:16:57.690Z,7.2
2023-01-06T08:18:04.919Z,7.2
2023-01-06T08:19:11.904Z,7.2
2023-01-06T08:20:18.988Z,7.3
2023-01-06T08:21:26.119Z,7.2
2023-01-06T08:22:32.740Z,7.2
2023-01-06T08:23:39.835Z,7.2
2023-01-06T08:24:46.927Z,7.2
2023-01-06T08:25:54.002Z,7.2
2023-01-06T08:27:01.141Z,7.2
2023-01-06T08:28:08.280Z,7.2
2023-01-06T08:29:14.771Z,7.2
2023-01-06T08:30:22.107Z,7.3
2023-01-06T08:31:29.128Z,7.2
2023-01-06T08:32:36.154Z,7.2
2023-01-06T08:33:42.712Z,7.3
2023-01-06T08:34:49.835Z,7.3
2023-01-06T08:35:56.973Z,7.3
2023-01-06T08:37:03.996Z,7.3
2023-01-06T08:38:11.182Z,7.3
2023-01-06T08:39:17.739Z,7.3
2023-01-06T08:40:25.915Z,7.3
2023-01-06T08:41:31.909Z,7.4
2023-01-06T08:42:39.059Z,7.4
2023-01-06T08:43:46.158Z,7.4
2023-01-06T08:44:52.745Z,7.4
2023-01-06T08:45:59.941Z,7.4
2023-01-06T08:47:06.941Z,7.4
2023-01-06T08:48:14.070Z,7.4
2023-01-06T08:49:21.194Z,7.3
2023-01-06T08:50:27.772Z,7.3
2023-01-06T08:51:34.835Z,7.3
2023-01-06T08:52:41.933Z,7.3
2023-01-06T08:53:49.082Z,7.2
2023-01-06T08:54:56.151Z,7.2
2023-01-06T08:56:02.844Z,7.2
2023-01-06T08:57:09.899Z,7.1
2023-01-06T08:58:17.033Z,7.1
2023-01-06T08:59:24.052Z,7.1
2023-01-06T09:00:31.310Z,7.1
2023-01-06T09:01:37.887Z,7.1
2023-01-06T09:02:44.853Z,7.2
2023-01-06T09:03:51.955Z,7.2
2023-01-06T09:04:59.135Z,7.3
2023-01-06T09:06:06.225Z,7.3
2023-01-06T09:07:12.808Z,7.3
2023-01-06T09:08:19.951Z,7.3
2023-01-06T09:09:26.984Z,7.3
2023-01-06T09:10:34.060Z,7.2
2023-01-06T09:11:41.214Z,7.3
2023-01-06T09:13:54.873Z,7.3
2023-01-06T09:15:01.495Z,7.3
2023-01-06T09:16:09.126Z,7.3
2023-01-06T09:17:16.177Z,7.3
2023-01-06T09:18:22.970Z,7.3
2023-01-06T09:19:29.871Z,7.3
2023-01-06T09:20:37.047Z,7.3
2023-01-06T09:21:44.086Z,7.3
2023-01-06T09:22:51.292Z,7.3
2023-01-06T09:23:57.794Z,7.3
2023-01-06T09:25:04.918Z,7.3
2023-01-06T09:26:11.957Z,7.4
2023-01-06T09:27:19.173Z,7.3
2023-01-06T09:28:26.219Z,7.3
2023-01-06T09:29:32.757Z,7.3
2023-01-06T09:30:39.926Z,7.3
2023-01-06T09:32:54.173Z,7.3
2023-01-06T09:34:01.239Z,7.3
2023-01-06T09:35:07.790Z,7.3
2023-01-06T09:36:14.876Z,7.3
2023-01-06T09:37:21.985Z,7.3
2023-01-06T09:38:29.160Z,7.3
2023-01-06T09:39:35.722Z,7.3
2023-01-06T09:40:42.763Z,7.3
2023-01-06T09:41:49.919Z,7.3
2023-01-06T09:42:57.060Z,7.3
2023-01-06T09:44:04.159Z,7.3
2023-01-06T09:45:10.735Z,7.4
2023-01-06T09:46:17.885Z,7.3
2023-01-06T09:47:24.951Z,7.3
2023-01-06T09:48:32.045Z,7.4
2023-01-06T09:49:39.087Z,7.4
2023-01-06T09:50:45.720Z,7.4
2023-01-06T09:51:52.807Z,7.4
2023-01-06T09:52:59.977Z,7.3
2023-01-06T09:54:07.065Z,7.4
2023-01-06T09:55:14.096Z,7.3
2023-01-06T09:56:21.244Z,7.3
2023-01-06T09:57:27.853Z,7.2
2023-01-06T09:58:34.938Z,7.2
2023-01-06T09:59:42.002Z,7.2
2023-01-06T10:00:49.140Z,7.2
2023-01-06T10:01:55.844Z,7.2
2023-01-06T10:03:02.937Z,7.2
2023-01-06T10:04:10.015Z,7.3
2023-01-06T10:05:17.093Z,7.3
2023-01-06T10:06:24.175Z,7.3
2023-01-06T10:07:30.734Z,7.3
2023-01-06T10:08:38.364Z,7.4
2023-01-06T10:09:44.943Z,7.4
2023-01-06T10:11:59.184Z,7.4
2023-01-06T10:13:05.821Z,7.5
2023-01-06T10:14:12.847Z,7.5
2023-01-06T10:15:19.979Z,7.5
2023-01-06T10:17:34.198Z,7.5
2023-01-06T10:18:40.775Z,7.5
2023-01-06T10:19:47.885Z,7.5
2023-01-06T10:20:54.942Z,7.5
2023-01-06T10:22:02.074Z,7.5
2023-01-06T10:23:09.228Z,7.5
2023-01-06T10:24:15.774Z,7.4
2023-01-06T10:25:22.890Z,7.4
2023-01-06T10:26:30.015Z,7.4
2023-01-06T10:27:37.097Z,7.4
2023-01-06T10:28:44.251Z,7.4
2023-01-06T10:29:50.813Z,7.4
2023-01-06T10:30:57.872Z,7.4
2023-01-06T10:32:04.949Z,7.4
2023-01-06T10:33:12.143Z,7.4
2023-01-06T10:34:19.219Z,7.4
2023-01-06T10:36:32.864Z,7.4
2023-01-06T10:37:39.951Z,7.4
2023-01-06T10:39:54.221Z,7.4
2023-01-06T10:41:01.255Z,7.4
2023-01-06T10:42:07.847Z,7.4
2023-01-06T10:43:14.992Z,7.4
2023-01-06T10:44:22.035Z,7.4
2023-01-06T10:45:30.711Z,7.4
2023-01-06T10:46:35.800Z,7.4
2023-01-06T10:47:42.963Z,7.4
2023-01-06T10:48:49.978Z,7.4
2023-01-06T10:49:57.100Z,7.4
2023-01-06T10:51:04.143Z,7.4
2023-01-06T10:52:11.321Z,7.4
2023-01-06T10:53:17.926Z,7.4
2023-01-06T10:54:24.941Z,7.4
2023-01-06T10:55:32.050Z,7.4
2023-01-06T10:56:39.188Z,7.4
2023-01-06T10:57:45.773Z,7.4
2023-01-06T10:58:52.874Z,7.4
2023-01-06T11:01:07.233Z,7.4
2023-01-06T11:02:14.252Z,7.4
2023-01-06T11:03:32.726Z,7.4
2023-01-06T11:04:27.972Z,7.4
2023-01-06T11:05:35.070Z,7.4
2023-01-06T11:06:42.237Z,7.4
2023-01-06T11:07:49.252Z,7.4
2023-01-06T11:08:55.782Z,7.4
2023-01-06T11:10:02.865Z,7.4
2023-01-06T11:11:16.524Z,7.4
2023-01-06T11:12:17.124Z,7.4
2023-01-06T11:13:23.674Z,7.4
2023-01-06T11:14:30.793Z,7.4
2023-01-06T11:15:37.925Z,7.4
2023-01-06T11:16:44.973Z,7.4
2023-01-06T11:17:52.061Z,7.4
2023-01-06T11:18:59.200Z,7.4
2023-01-06T11:21:12.881Z,7.4
2023-01-06T11:22:19.983Z,7.4
2023-01-06T11:23:27.196Z,7.4
2023-01-06T11:30:09.274Z,7.3
2023-01-06T11:31:15.899Z,7.4
2023-01-06T11:32:22.887Z,7.3
2023-01-06T11:33:30.073Z,7.3
2023-01-06T11:34:37.137Z,7.4
2023-01-06T11:35:44.209Z,7.3
2023-01-06T11:36:51.268Z,7.3
2023-01-06T11:37:57.915Z,7.3
2023-01-06T11:39:05.517Z,7.3
2023-01-06T11:40:12.135Z,7.3
2023-01-06T11:42:25.840Z,7.3
2023-01-06T11:43:32.915Z,7.3
2023-01-06T11:44:39.999Z,7.3
2023-01-06T11:45:47.146Z,7.3
2023-01-06T11:46:53.668Z,7.4
2023-01-06T11:48:00.765Z,7.4
2023-01-06T11:49:07.944Z,7.4
2023-01-06T11:50:15.042Z,7.4
2023-01-06T11:51:22.122Z,7.4
2023-01-06T11:52:29.262Z,7.4
2023-01-06T11:53:35.898Z,7.4
2023-01-06T11:54:42.868Z,7.4
2023-01-06T11:55:50.017Z,7.4
2023-01-06T11:56:57.172Z,7.4
2023-01-06T11:58:03.712Z,7.4
2023-01-06T11:59:10.858Z,7.4
2023-01-06T12:00:18.058Z,7.4
2023-01-06T12:01:25.139Z,7.5
2023-01-06T12:02:32.191Z,7.5
2023-01-06T12:03:38.865Z,7.5
2023-01-06T12:04:45.849Z,7.5
2023-01-06T12:05:52.917Z,7.5
2023-01-06T12:07:00.081Z,7.5
2023-01-06T12:08:07.177Z,7.5
2023-01-06T12:10:20.833Z,7.6
2023-01-06T12:11:27.971Z,7.5
2023-01-06T12:12:35.087Z,7.6
2023-01-06T12:13:44.692Z,7.6
2023-01-06T12:14:49.294Z,7.6
2023-01-06T12:15:55.903Z,7.6
2023-01-06T12:17:03.150Z,7.6
2023-01-06T12:18:10.097Z,7.6
2023-01-06T12:19:17.205Z,7.6
2023-01-06T12:20:23.751Z,7.6
2023-01-06T12:21:30.887Z,7.6
2023-01-06T12:22:37.953Z,7.6
2023-01-06T12:23:45.145Z,7.5
2023-01-06T12:24:52.181Z,7.5
2023-01-06T12:25:58.709Z,7.5
2023-01-06T12:27:05.852Z,7.5
2023-01-06T12:29:20.108Z,7.5
2023-01-06T12:30:27.404Z,7.5
2023-01-06T12:31:33.775Z,7.6
2023-01-06T12:32:40.869Z,7.5
2023-01-06T12:33:48.041Z,7.5
2023-01-06T12:34:55.119Z,7.6
2023-01-06T12:36:02.158Z,7.6
2023-01-06T12:38:15.945Z,7.6
2023-01-06T12:39:22.973Z,7.6
2023-01-06T12:40:30.110Z,7.6
2023-01-06T12:41:37.194Z,7.5
2023-01-06T12:42:43.769Z,7.6
2023-01-06T12:43:50.935Z,7.6
2023-01-06T12:44:58.022Z,7.5
2023-01-06T12:46:07.155Z,7.5
2023-01-06T12:47:12.201Z,7.5
2023-01-06T12:48:18.894Z,7.6
2023-01-06T12:49:25.933Z,7.5
2023-01-06T12:50:32.997Z,7.5
2023-01-06T12:51:40.134Z,7.5
2023-01-06T12:52:47.247Z,7.5
2023-01-06T12:53:56.102Z,7.6
2023-01-06T12:55:00.898Z,7.5
2023-01-06T12:56:08.025Z,7.6
2023-01-06T12:57:15.100Z,7.5
2023-01-06T12:58:22.211Z,7.5
2023-01-06T12:59:28.792Z,7.5
2023-01-06T13:00:35.933Z,7.5
2023-01-06T13:01:43.130Z,7.6
2023-01-06T13:02:50.151Z,7.5
2023-01-06T13:03:57.332Z,7.5
2023-01-06T13:05:04.355Z,7.6
2023-01-06T13:06:10.915Z,7.5
2023-01-06T13:07:18.055Z,7.5
2023-01-06T13:08:25.075Z,7.5
2023-01-06T13:09:32.187Z,7.5
2023-01-06T13:10:38.844Z,7.5
2023-01-06T13:11:45.939Z,7.5
2023-01-06T13:12:53.014Z,7.5
2023-01-06T13:14:00.181Z,7.5
2023-01-06T13:15:06.728Z,7.4
2023-01-06T13:16:13.886Z,7.4
2023-01-06T13:17:20.921Z,7.4
2023-01-06T13:18:28.064Z,7.4
2023-01-06T13:19:35.169Z,7.4
2023-01-06T13:20:41.721Z,7.4
2023-01-06T13:21:48.878Z,7.4
2023-01-06T13:22:55.982Z,7.4
2023-01-06T13:24:03.114Z,7.4
2023-01-06T13:25:10.129Z,7.4
2023-01-06T13:26:17.244Z,7.4
2023-01-06T13:28:30.937Z,7.4
2023-01-06T13:29:38.098Z,7.4
2023-01-06T13:30:45.212Z,7.4
2023-01-06T13:31:51.738Z,7.4
2023-01-06T13:32:59.152Z,7.4
2023-01-06T13:34:06.017Z,7.3
2023-01-06T13:35:13.044Z,7.3
2023-01-06T13:36:20.144Z,7.3
2023-01-06T13:37:26.782Z,7.3
2023-01-06T13:38:33.848Z,7.3
2023-01-06T13:39:40.433Z,7.3
2023-01-06T13:40:48.063Z,7.3
2023-01-06T13:41:55.896Z,7.3
2023-01-06T13:43:01.835Z,7.3
2023-01-06T13:44:08.844Z,7.3
2023-01-06T13:45:15.985Z,7.3
2023-01-06T13:46:23.554Z,7.3
2023-01-06T13:47:30.203Z,7.3
2023-01-06T13:48:37.261Z,7.3
2023-01-06T13:49:43.866Z,7.3
2023-01-06T13:50:50.941Z,7.3
2023-01-06T13:51:58.092Z,7.3
2023-01-06T13:53:05.271Z,7.3
2023-01-06T13:54:11.754Z,7.3
2023-01-06T13:55:18.892Z,7.3
2023-01-06T13:57:33.084Z,7.4
2023-01-06T13:58:40.344Z,7.4
2023-01-06T13:59:46.797Z,7.4
2023-01-06T14:00:53.899Z,7.4
2023-01-06T14:02:01.072Z,7.4
2023-01-06T14:03:08.235Z,7.4
2023-01-06T14:04:15.211Z,7.4
2023-01-06T14:05:21.781Z,7.4
2023-01-06T14:06:28.914Z,7.5
2023-01-06T14:08:43.057Z,7.5
2023-01-06T14:09:50.227Z,7.5
2023-01-06T14:10:56.775Z,7.5
2023-01-06T14:12:03.879Z,7.5
2023-01-06T14:13:11.060Z,7.5
2023-01-06T14:14:18.101Z,7.5
2023-01-06T14:15:25.194Z,7.6
2023-01-06T14:16:31.780Z,7.5
2023-01-06T14:17:38.915Z,7.5
2023-01-06T14:18:46.016Z,7.6
2023-01-06T14:19:53.127Z,7.5
2023-01-06T14:21:00.200Z,7.5
2023-01-06T14:22:06.849Z,7.5
2023-01-06T14:23:13.969Z,7.5
2023-01-06T14:24:21.025Z,7.5
2023-01-06T14:25:28.119Z,7.5
2023-01-06T14:26:34.692Z,7.6
2023-01-06T14:27:41.792Z,7.6
2023-01-06T14:29:56.036Z,7.6
2023-01-06T14:32:09.714Z,7.7
2023-01-06T14:33:17.434Z,7.7
2023-01-06T14:34:23.931Z,7.7
2023-01-06T14:35:31.118Z,7.7
2023-01-06T14:36:38.121Z,7.7
2023-01-06T14:37:45.267Z,7.6
2023-01-06T14:38:51.806Z,7.7
2023-01-06T14:39:58.906Z,7.7
2023-01-06T14:41:06.024Z,7.7
2023-01-06T14:42:13.138Z,7.7
2023-01-06T14:43:19.817Z,7.7
2023-01-06T14:44:26.861Z,7.7
2023-01-06T14:45:33.911Z,7.7
2023-01-06T14:46:41.031Z,7.7
2023-01-06T14:47:48.176Z,7.7
2023-01-06T14:48:54.767Z,7.7
2023-01-06T14:50:02.349Z,7.7
2023-01-06T14:51:08.972Z,7.7
2023-01-06T14:52:16.072Z,7.6
2023-01-06T14:53:23.230Z,7.6
2023-01-06T14:54:29.771Z,7.6
2023-01-06T14:55:36.849Z,7.5
2023-01-06T14:56:43.982Z,7.5
2023-01-06T14:57:51.431Z,7.5
2023-01-06T14:58:58.152Z,7.5
2023-01-06T15:00:05.425Z,7.5
2023-01-06T15:01:11.999Z,7.5
2023-01-06T15:02:19.195Z,7.5
2023-01-06T15:03:26.190Z,7.5
2023-01-06T15:04:33.144Z,7.6
2023-01-06T15:05:39.814Z,7.5
2023-01-06T15:06:46.907Z,7.5
2023-01-06T15:07:53.993Z,7.5
2023-01-06T15:09:01.061Z,7.5
2023-01-06T15:10:08.198Z,7.5
2023-01-06T15:11:14.786Z,7.5
2023-01-06T15:12:21.856Z,7.5
2023-01-06T15:13:29.069Z,7.5
2023-01-06T15:14:36.139Z,7.5
2023-01-06T15:15:43.255Z,7.6
2023-01-06T15:16:49.852Z,7.6
2023-01-06T15:17:56.924Z,7.6
2023-01-06T15:19:04.037Z,7.6
2023-01-06T15:20:11.059Z,7.6
2023-01-06T15:21:18.182Z,7.6
2023-01-06T15:22:24.821Z,7.6
2023-01-06T15:23:31.900Z,7.6
2023-01-06T15:25:46.078Z,7.7
2023-01-06T15:26:53.213Z,7.7
2023-01-06T15:27:59.888Z,7.7
2023-01-06T15:29:07.020Z,7.7
2023-01-06T15:30:14.061Z,7.7
2023-01-06T15:31:21.234Z,7.6
2023-01-06T15:32:28.597Z,7.6
2023-01-06T15:33:34.842Z,7.5
2023-01-06T15:35:49.029Z,7.5
2023-01-06T15:36:56.143Z,7.5
2023-01-06T15:38:03.273Z,7.5
2023-01-06T15:39:09.850Z,7.5
2023-01-06T15:40:16.894Z,7.4
2023-01-06T15:41:24.043Z,7.4
2023-01-06T15:42:31.152Z,7.4
2023-01-06T15:43:37.721Z,7.4
2023-01-06T15:44:44.858Z,7.4
2023-01-06T15:45:51.931Z,7.4
2023-01-06T15:46:59.042Z,7.4
2023-01-06T15:48:06.160Z,7.4
2023-01-06T15:49:13.263Z,7.4
2023-01-06T15:50:19.865Z,7.4
2023-01-06T15:51:26.941Z,7.4
2023-01-06T15:52:34.045Z,7.4
2023-01-06T15:53:41.125Z,7.4
2023-01-06T15:54:47.750Z,7.4
2023-01-06T15:55:54.859Z,7.4
2023-01-06T15:57:15.265Z,7.4
2023-01-06T15:58:09.025Z,7.4
2023-01-06T15:59:15.670Z,7.4
2023-01-06T16:00:22.682Z,7.4
2023-01-06T16:01:30.537Z,7.4
2023-01-06T16:02:37.038Z,7.4